Time;durP1;ratioP1;P1;durP2;ratioP2;P2;SDS_P1;SDS_P2;PMS_P1;PMS_P2;Temp;Humidity;BMP_temperature;BMP_pressure;BME280_temperature;BME280_humidity;BME280_pressure;Samples;Min_cycle;Max_cycle;Signal;HPM_P1;HPM_P2
2021/04/20 00:02:09;;;;;;;44.10;31.93;;;7.10;99.90;;;;;;5035105;28;20803;-57
2021/04/20 00:04:35;;;;;;;42.03;32.63;;;7.10;99.90;;;;;;5035004;28;20484;-59
2021/04/20 00:07:01;;;;;;;50.87;36.73;;;7.00;99.90;;;;;;5034808;28;20454;-58
2021/04/20 00:09:26;;;;;;;47.63;35.83;;;7.10;99.90;;;;;;5035266;28;20160;-59
2021/04/20 00:11:52;;;;;;;51.30;38.00;;;7.00;99.90;;;;;;5035116;28;20414;-58
2021/04/20 00:14:17;;;;;;;45.83;34.67;;;7.00;99.90;;;;;;5035090;28;20192;-58
2021/04/20 00:16:43;;;;;;;50.77;38.77;;;7.10;99.90;;;;;;5036582;28;20167;-59
2021/04/20 00:19:09;;;;;;;43.77;32.50;;;7.10;99.90;;;;;;5035483;28;20164;-58
2021/04/20 00:21:35;;;;;;;45.80;35.80;;;7.00;99.90;;;;;;5035034;28;20410;-58
2021/04/20 00:24:02;;;;;;;47.47;37.37;;;7.00;99.90;;;;;;5034817;28;20191;-58
2021/04/20 00:29:03;;;;;;;47.93;34.07;;;6.90;99.90;;;;;;5509360;22;20540;-60
2021/04/20 00:34:04;;;;;;;50.97;37.13;;;7.00;99.90;;;;;;5371726;23;20571;-54
2021/04/20 00:36:29;;;;;;;46.23;35.77;;;7.00;99.90;;;;;;5035036;28;20430;-57
2021/04/20 00:38:55;;;;;;;49.87;36.37;;;6.90;99.90;;;;;;5034872;28;20186;-50
2021/04/20 00:41:23;;;;;;;49.67;36.90;;;6.90;99.90;;;;;;5054610;28;20193;-50
2021/04/20 00:43:48;;;;;;;38.83;31.30;;;7.00;99.90;;;;;;5054940;28;20624;-54
2021/04/20 00:46:19;;;;;;;51.03;38.13;;;7.00;99.90;;;;;;5054905;28;20717;-50
2021/04/20 00:48:45;;;;;;;53.20;39.50;;;7.00;99.90;;;;;;5062244;22;20235;-57
2021/04/20 00:51:12;;;;;;;37.73;31.07;;;6.90;99.90;;;;;;5003321;28;20412;-55
2021/04/20 00:53:39;;;;;;;51.47;37.67;;;6.90;99.90;;;;;;4994363;28;20388;-56
2021/04/20 00:56:05;;;;;;;39.93;32.03;;;6.90;99.90;;;;;;5012566;28;20422;-56
2021/04/20 00:58:31;;;;;;;47.97;35.53;;;6.90;99.90;;;;;;5013730;28;20445;-54
2021/04/20 01:00:58;;;;;;;43.23;33.73;;;6.90;99.90;;;;;;5021443;28;20406;-58
2021/04/20 01:03:24;;;;;;;44.23;33.80;;;6.90;99.90;;;;;;5033694;28;20399;-56
2021/04/20 01:05:51;;;;;;;46.00;34.97;;;6.90;99.90;;;;;;5033772;28;20438;-58
2021/04/20 01:08:19;;;;;;;43.80;33.27;;;6.80;99.90;;;;;;5030486;28;20540;-57
2021/04/20 01:10:52;;;;;;;45.00;34.60;;;6.70;99.90;;;;;;5034032;28;20409;-56
2021/04/20 01:13:18;;;;;;;49.70;36.17;;;6.70;99.90;;;;;;5034038;28;20386;-57
2021/04/20 01:15:46;;;;;;;42.30;34.43;;;6.70;99.90;;;;;;5032330;28;20425;-57
2021/04/20 01:18:17;;;;;;;39.57;30.90;;;6.70;99.90;;;;;;5019278;28;20442;-58
2021/04/20 01:20:44;;;;;;;46.70;34.77;;;6.70;99.90;;;;;;5006734;28;20415;-57
2021/04/20 01:23:14;;;;;;;49.30;38.13;;;6.70;99.90;;;;;;5013807;28;20528;-57
2021/04/20 01:25:41;;;;;;;53.03;39.07;;;6.70;99.90;;;;;;5014138;28;20496;-55
2021/04/20 01:28:07;;;;;;;45.07;36.70;;;6.70;99.90;;;;;;5014314;28;20945;-58
2021/04/20 01:30:35;;;;;;;51.20;35.23;;;6.50;99.90;;;;;;5013596;28;20407;-55
2021/04/20 01:33:04;;;;;;;54.77;39.93;;;6.50;99.90;;;;;;5013994;28;20415;-53
2021/04/20 01:35:30;;;;;;;43.80;34.10;;;6.40;99.90;;;;;;5014064;28;20802;-55
2021/04/20 01:37:56;;;;;;;51.50;35.57;;;6.50;99.90;;;;;;5013136;28;20434;-51
2021/04/20 01:40:21;;;;;;;44.73;37.10;;;6.60;99.90;;;;;;5013726;28;20438;-54
2021/04/20 01:42:47;;;;;;;52.87;39.57;;;6.70;99.90;;;;;;5013793;28;20263;-51
2021/04/20 01:45:13;;;;;;;53.97;41.90;;;6.90;99.90;;;;;;5022008;28;20206;-55
2021/04/20 01:47:39;;;;;;;57.93;41.90;;;6.90;99.90;;;;;;5033599;28;20230;-54
2021/04/20 01:50:06;;;;;;;50.73;37.50;;;6.80;99.90;;;;;;5032715;28;20432;-55
2021/04/20 01:52:32;;;;;;;60.20;44.10;;;6.90;99.90;;;;;;5032778;28;20936;-55
2021/04/20 01:54:58;;;;;;;45.50;36.20;;;7.00;99.90;;;;;;5033718;28;20444;-56
2021/04/20 01:57:25;;;;;;;45.13;35.13;;;7.10;99.90;;;;;;5031685;28;20487;-57
2021/04/20 01:59:51;;;;;;;52.77;39.27;;;7.10;99.90;;;;;;5033379;28;20426;-55
2021/04/20 02:02:18;;;;;;;48.27;35.07;;;7.10;99.90;;;;;;5033665;28;20502;-57
2021/04/20 02:04:43;;;;;;;65.83;46.50;;;7.00;99.90;;;;;;5033102;28;20406;-54
2021/04/20 02:07:09;;;;;;;53.47;38.90;;;7.00;99.90;;;;;;5032777;28;20442;-56
2021/04/20 02:09:35;;;;;;;54.07;37.10;;;7.00;99.90;;;;;;5032992;28;20190;-56
2021/04/20 02:12:01;;;;;;;60.43;42.03;;;6.90;99.90;;;;;;5033431;28;20175;-56
2021/04/20 02:14:27;;;;;;;59.20;43.47;;;6.90;99.90;;;;;;5032973;28;20168;-55
2021/04/20 02:16:53;;;;;;;53.33;39.67;;;6.90;99.90;;;;;;5033045;28;20948;-55
2021/04/20 02:19:20;;;;;;;54.10;39.30;;;6.90;99.90;;;;;;5033451;28;20847;-56
2021/04/20 02:21:46;;;;;;;64.87;45.27;;;6.90;99.90;;;;;;5032969;28;20410;-56
2021/04/20 02:24:15;;;;;;;52.60;37.67;;;6.60;99.90;;;;;;5023960;28;20415;-56
2021/04/20 02:26:42;;;;;;;43.80;33.93;;;6.50;99.90;;;;;;5013158;28;20942;-54
2021/04/20 02:29:09;;;;;;;46.47;36.93;;;6.50;99.90;;;;;;5010587;28;20521;-54
2021/04/20 02:31:40;;;;;;;43.53;35.67;;;6.60;99.90;;;;;;5033087;28;20402;-55
2021/04/20 02:34:07;;;;;;;45.30;36.47;;;6.70;99.90;;;;;;5032832;28;20394;-55
2021/04/20 02:36:41;;;;;;;39.67;33.73;;;6.80;99.90;;;;;;5032832;28;20406;-55
2021/04/20 02:39:08;;;;;;;50.40;39.87;;;6.80;99.90;;;;;;5032715;28;20421;-53
2021/04/20 02:41:35;;;;;;;38.20;32.13;;;6.80;99.90;;;;;;5031584;28;20564;-56
2021/04/20 02:44:01;;;;;;;36.23;29.37;;;6.80;99.90;;;;;;5032903;28;20463;-54
2021/04/20 02:46:28;;;;;;;37.83;32.90;;;6.80;99.90;;;;;;5032620;28;20444;-56
2021/04/20 02:48:54;;;;;;;39.50;33.10;;;6.80;99.90;;;;;;5032535;28;20446;-54
2021/04/20 02:51:20;;;;;;;34.20;30.47;;;6.80;99.90;;;;;;5032605;28;20438;-55
2021/04/20 02:53:46;;;;;;;43.47;35.00;;;6.70;99.90;;;;;;5032484;28;20414;-53
2021/04/20 02:56:15;;;;;;;33.87;30.33;;;6.70;99.90;;;;;;5032377;28;20406;-55
2021/04/20 02:58:41;;;;;;;36.70;30.60;;;6.70;99.90;;;;;;5032471;28;20479;-52
2021/04/20 03:01:17;;;;;;;32.37;28.87;;;6.70;99.90;;;;;;5033241;28;20758;-53
2021/04/20 03:03:44;;;;;;;36.30;32.00;;;6.70;99.90;;;;;;5036138;28;20964;-56
2021/04/20 03:06:10;;;;;;;38.13;31.87;;;6.70;99.90;;;;;;5037220;28;20449;-55
2021/04/20 03:08:36;;;;;;;32.07;28.70;;;6.70;99.90;;;;;;5036106;28;20783;-51
2021/04/20 03:11:07;;;;;;;29.40;25.40;;;6.70;99.90;;;;;;5036143;28;20418;-54
2021/04/20 03:13:35;;;;;;;33.40;26.87;;;6.80;99.90;;;;;;5036059;28;20698;-56
2021/04/20 03:16:06;;;;;;;31.90;26.83;;;6.80;99.90;;;;;;5036082;28;20414;-55
2021/04/20 03:18:31;;;;;;;33.93;28.77;;;6.80;99.90;;;;;;5036382;28;20437;-56
2021/04/20 03:20:59;;;;;;;37.60;31.53;;;6.80;99.90;;;;;;5036226;28;20766;-56
2021/04/20 03:23:24;;;;;;;30.27;26.77;;;6.90;99.90;;;;;;5017920;28;20509;-53
2021/04/20 03:25:50;;;;;;;41.10;33.10;;;6.90;99.90;;;;;;5035565;28;20561;-54
2021/04/20 03:28:17;;;;;;;34.67;26.97;;;6.80;99.90;;;;;;5017889;28;20230;-54
2021/04/20 03:30:43;;;;;;;36.30;29.70;;;6.70;99.90;;;;;;5036041;28;20171;-54
2021/04/20 03:33:37;;;;;;;35.90;29.83;;;6.80;99.90;;;;;;5035587;28;20406;-55
2021/04/20 03:36:10;;;;;;;33.40;27.97;;;6.90;99.90;;;;;;5033178;28;20253;-53
2021/04/20 03:38:49;;;;;;;43.40;33.57;;;6.90;99.90;;;;;;5035236;28;20534;-55
2021/04/20 03:41:22;;;;;;;49.80;35.90;;;6.90;99.90;;;;;;5035585;28;20905;-55
2021/04/20 03:43:51;;;;;;;44.47;33.43;;;7.00;99.90;;;;;;5034762;28;20421;-55
2021/04/20 03:46:21;;;;;;;40.47;32.17;;;7.00;99.90;;;;;;5035464;28;20528;-55
2021/04/20 03:49:11;;;;;;;38.93;31.77;;;7.00;99.90;;;;;;5035508;28;20461;-52
2021/04/20 03:51:40;;;;;;;43.67;33.60;;;7.00;99.90;;;;;;5036028;28;20394;-55
2021/04/20 03:54:08;;;;;;;43.20;31.53;;;7.10;99.90;;;;;;5035790;28;20461;-56
2021/04/20 03:56:35;;;;;;;45.07;34.23;;;7.10;99.90;;;;;;5035638;28;20406;-56
2021/04/20 03:59:04;;;;;;;53.80;40.00;;;7.20;99.90;;;;;;5034278;28;20430;-53
2021/04/20 04:01:43;;;;;;;43.50;33.70;;;7.10;99.90;;;;;;5035412;28;20414;-56
2021/04/20 04:04:11;;;;;;;40.47;33.00;;;7.20;99.90;;;;;;5035093;28;20524;-52
2021/04/20 04:06:37;;;;;;;39.30;30.93;;;7.20;99.90;;;;;;5016866;28;20460;-58
2021/04/20 04:09:03;;;;;;;49.53;35.27;;;7.20;99.90;;;;;;5034684;28;20983;-56
2021/04/20 04:11:33;;;;;;;47.00;35.60;;;7.30;99.90;;;;;;5013351;28;20424;-52
2021/04/20 04:14:01;;;;;;;39.10;31.77;;;7.30;99.90;;;;;;5011768;28;20187;-55
2021/04/20 04:16:29;;;;;;;48.67;36.57;;;7.30;99.90;;;;;;5015475;28;20819;-55
2021/04/20 04:18:56;;;;;;;45.87;35.03;;;7.40;99.90;;;;;;5017617;28;20431;-52
2021/04/20 04:21:30;;;;;;;44.40;33.60;;;7.40;99.90;;;;;;5015075;28;20803;-55
2021/04/20 04:23:59;;;;;;;50.60;37.97;;;7.40;99.90;;;;;;5014428;28;20400;-53
2021/04/20 04:26:32;;;;;;;42.90;35.17;;;7.40;99.90;;;;;;5015212;28;20789;-55
2021/04/20 04:28:59;;;;;;;49.90;35.40;;;7.40;99.90;;;;;;5015332;28;20426;-57
2021/04/20 04:31:27;;;;;;;44.00;33.67;;;7.30;99.90;;;;;;4995582;28;20978;-54
2021/04/20 04:33:54;;;;;;;55.27;38.80;;;7.30;99.90;;;;;;5012002;28;20422;-54
2021/04/20 04:36:21;;;;;;;44.93;32.90;;;7.20;99.90;;;;;;5034598;28;20586;-54
2021/04/20 04:38:47;;;;;;;40.70;32.20;;;7.20;99.90;;;;;;5034417;28;20930;-53
2021/04/20 04:41:13;;;;;;;42.80;31.93;;;7.10;99.90;;;;;;5034518;28;20402;-54
2021/04/20 04:43:41;;;;;;;48.17;33.97;;;7.10;99.90;;;;;;5034474;28;20625;-55
2021/04/20 04:46:07;;;;;;;47.23;34.83;;;7.00;99.90;;;;;;5034571;28;20941;-56
2021/04/20 04:48:35;;;;;;;46.60;36.90;;;6.80;99.90;;;;;;5034007;28;20450;-53
2021/04/20 04:51:01;;;;;;;42.83;34.60;;;6.60;99.90;;;;;;5034489;28;20630;-53
2021/04/20 04:53:28;;;;;;;57.40;37.90;;;6.50;99.90;;;;;;5033848;28;20402;-55
2021/04/20 04:55:56;;;;;;;45.10;34.00;;;6.60;99.90;;;;;;5034325;28;20418;-54
2021/04/20 04:58:26;;;;;;;51.10;37.50;;;6.60;99.90;;;;;;5033767;28;20421;-56
2021/04/20 05:00:54;;;;;;;41.77;32.20;;;6.60;99.90;;;;;;5034099;28;20421;-56
2021/04/20 05:03:22;;;;;;;41.90;32.40;;;6.70;99.90;;;;;;5034073;28;20414;-54
2021/04/20 05:06:02;;;;;;;49.47;37.67;;;6.70;99.90;;;;;;5033715;28;20506;-55
2021/04/20 05:08:29;;;;;;;42.17;33.03;;;6.80;99.90;;;;;;5033161;28;20856;-56
2021/04/20 05:11:01;;;;;;;44.57;33.73;;;6.80;99.90;;;;;;5014491;28;20431;-57
2021/04/20 05:13:27;;;;;;;38.80;29.90;;;6.80;99.90;;;;;;4998162;28;20419;-53
2021/04/20 05:15:53;;;;;;;52.93;37.40;;;6.80;99.90;;;;;;4994775;28;20766;-54
2021/04/20 05:18:19;;;;;;;33.70;28.90;;;6.90;99.90;;;;;;4994944;28;20600;-54
2021/04/20 05:20:46;;;;;;;42.43;30.90;;;6.90;99.90;;;;;;4994415;28;20411;-54
2021/04/20 05:23:15;;;;;;;35.77;29.70;;;7.00;99.90;;;;;;4993700;28;20408;-52
2021/04/20 05:25:42;;;;;;;38.33;30.73;;;7.00;99.90;;;;;;4993229;28;20444;-54
2021/04/20 05:28:07;;;;;;;37.10;29.53;;;7.00;99.90;;;;;;4994431;28;20826;-52
2021/04/20 05:30:34;;;;;;;34.30;28.80;;;7.10;99.90;;;;;;4994111;28;20423;-55
2021/04/20 05:33:00;;;;;;;45.60;35.17;;;7.10;99.90;;;;;;4995059;28;20658;-54
2021/04/20 05:35:27;;;;;;;30.63;25.40;;;7.10;99.90;;;;;;5013833;28;20407;-54
2021/04/20 05:37:53;;;;;;;32.73;27.80;;;7.10;99.90;;;;;;5013470;28;20406;-53
2021/04/20 05:40:27;;;;;;;33.47;28.20;;;7.00;99.90;;;;;;5021870;28;20457;-53
2021/04/20 05:42:59;;;;;;;33.60;26.63;;;7.10;99.90;;;;;;5033684;28;20405;-53
2021/04/20 05:45:24;;;;;;;50.07;37.63;;;7.10;99.90;;;;;;5033137;28;20769;-54
2021/04/20 05:47:52;;;;;;;38.03;30.57;;;7.20;99.90;;;;;;5032625;28;20414;-56
2021/04/20 05:50:23;;;;;;;39.47;32.37;;;7.30;99.90;;;;;;5033674;28;20282;-54
2021/04/20 05:52:49;;;;;;;35.83;30.40;;;7.40;99.90;;;;;;5033444;28;20433;-53
2021/04/20 05:55:15;;;;;;;41.83;33.63;;;7.50;99.90;;;;;;5033142;28;20406;-55
2021/04/20 05:57:46;;;;;;;41.83;32.47;;;7.70;99.90;;;;;;5031889;28;20409;-53
2021/04/20 06:00:13;;;;;;;44.03;34.70;;;7.80;99.90;;;;;;5033347;28;20493;-57
2021/04/20 06:02:39;;;;;;;36.53;31.17;;;7.80;99.90;;;;;;5032875;28;20505;-56
2021/04/20 06:05:17;;;;;;;34.17;28.60;;;7.90;99.90;;;;;;5033195;28;20414;-54
2021/04/20 06:07:50;;;;;;;35.73;29.93;;;8.00;99.90;;;;;;5031554;28;20414;-54
2021/04/20 06:10:17;;;;;;;34.87;29.07;;;8.00;99.90;;;;;;5033543;28;20845;-55
2021/04/20 06:12:43;;;;;;;34.67;29.37;;;8.00;99.90;;;;;;5032698;28;20398;-53
2021/04/20 06:15:10;;;;;;;33.10;28.30;;;8.10;99.90;;;;;;5033120;28;20529;-57
2021/04/20 06:17:38;;;;;;;39.40;31.33;;;8.10;99.90;;;;;;5032712;28;20488;-57
2021/04/20 06:20:05;;;;;;;35.57;28.73;;;8.20;99.90;;;;;;5033035;28;20425;-55
2021/04/20 06:22:32;;;;;;;33.87;27.47;;;8.20;99.90;;;;;;5032613;28;20410;-56
2021/04/20 06:24:58;;;;;;;38.40;31.90;;;8.30;99.90;;;;;;5032832;28;20398;-57
2021/04/20 06:27:25;;;;;;;32.63;28.90;;;8.40;99.90;;;;;;5027010;28;20445;-57
2021/04/20 06:29:50;;;;;;;32.93;29.10;;;8.50;99.90;;;;;;5013473;28;20431;-57
2021/04/20 06:32:17;;;;;;;35.50;31.20;;;8.60;99.90;;;;;;5013056;28;20490;-57
2021/04/20 06:34:43;;;;;;;30.37;27.27;;;8.70;99.90;;;;;;5012606;28;20176;-56
2021/04/20 06:37:09;;;;;;;31.30;27.90;;;8.80;99.90;;;;;;5020599;28;20421;-57
2021/04/20 06:39:37;;;;;;;37.23;31.63;;;8.90;99.90;;;;;;5037056;28;20624;-55
2021/04/20 06:42:07;;;;;;;31.97;28.53;;;8.90;99.90;;;;;;5038527;28;20402;-56
2021/04/20 06:44:49;;;;;;;33.93;28.40;;;8.90;99.90;;;;;;5039405;28;20403;-56
2021/04/20 06:47:43;;;;;;;33.63;29.87;;;8.80;99.90;;;;;;5037857;28;20486;-57
2021/04/20 06:50:11;;;;;;;33.63;30.00;;;9.00;99.90;;;;;;5028193;23;20525;-56
2021/04/20 06:52:50;;;;;;;33.70;30.07;;;9.10;99.90;;;;;;5027976;28;20418;-60
2021/04/20 06:55:41;;;;;;;32.97;29.30;;;9.10;99.90;;;;;;5035348;28;20422;-58
2021/04/20 06:58:16;;;;;;;34.40;30.20;;;8.90;99.90;;;;;;5036436;28;20394;-59
2021/04/20 07:00:55;;;;;;;32.70;29.13;;;9.00;99.90;;;;;;5036867;28;20501;-59
2021/04/20 07:03:32;;;;;;;30.27;27.00;;;9.10;99.90;;;;;;5036583;28;20401;-55
2021/04/20 07:06:01;;;;;;;30.77;27.43;;;9.40;99.90;;;;;;5036250;28;20492;-58
2021/04/20 07:08:38;;;;;;;35.90;30.30;;;9.50;99.90;;;;;;5036999;28;20845;-59
2021/04/20 07:11:25;;;;;;;34.07;29.87;;;9.40;99.90;;;;;;5036732;28;20496;-56
2021/04/20 07:13:55;;;;;;;34.60;30.37;;;9.50;99.90;;;;;;5036442;28;20387;-54
2021/04/20 07:16:33;;;;;;;38.37;34.13;;;9.30;99.90;;;;;;5033290;28;20442;-57
2021/04/20 07:19:02;;;;;;;35.73;30.23;;;9.50;99.90;;;;;;5036405;28;20402;-57
2021/04/20 07:21:55;;;;;;;36.63;32.30;;;9.60;99.90;;;;;;5035973;28;20794;-55
2021/04/20 07:24:41;;;;;;;35.50;29.93;;;9.70;99.90;;;;;;5036119;28;20451;-55
2021/04/20 07:27:35;;;;;;;35.80;28.47;;;9.50;99.90;;;;;;5018091;28;20493;-55
2021/04/20 07:30:23;;;;;;;31.77;28.13;;;9.60;99.90;;;;;;5035845;28;20520;-56
2021/04/20 07:33:11;;;;;;;35.80;30.17;;;9.50;99.90;;;;;;5035974;28;20861;-59
2021/04/20 07:36:20;;;;;;;33.60;28.47;;;9.50;99.90;;;;;;5035864;28;20904;-57
2021/04/20 07:38:56;;;;;;;34.53;30.43;;;9.70;99.90;;;;;;4955509;29;20418;-56
2021/04/20 07:41:28;;;;;;;34.60;29.13;;;9.80;99.90;;;;;;4955964;28;20508;-56
2021/04/20 07:44:11;;;;;;;35.03;29.47;;;9.80;99.90;;;;;;5002061;28;20464;-58
2021/04/20 07:46:46;;;;;;;31.30;27.73;;;9.90;99.90;;;;;;5035361;28;20436;-59
2021/04/20 07:49:33;;;;;;;31.90;28.60;;;10.00;99.90;;;;;;5035975;28;20475;-60
2021/04/20 07:52:01;;;;;;;32.70;27.67;;;10.10;99.90;;;;;;5035362;28;20436;-60
2021/04/20 07:54:42;;;;;;;29.23;26.17;;;10.10;99.90;;;;;;5035178;28;20408;-59
2021/04/20 07:57:24;;;;;;;32.40;28.90;;;10.50;99.90;;;;;;5035252;28;20420;-57
2021/04/20 08:00:01;;;;;;;30.03;25.40;;;10.80;99.90;;;;;;5035104;28;20910;-56
2021/04/20 08:02:41;;;;;;;28.30;25.37;;;10.90;99.90;;;;;;5035605;28;20826;-53
2021/04/20 08:05:29;;;;;;;28.63;25.83;;;11.10;99.90;;;;;;5035046;28;20493;-58
2021/04/20 08:07:54;;;;;;;27.03;24.13;;;10.90;99.90;;;;;;5035160;28;20754;-57
2021/04/20 08:10:25;;;;;;;28.57;25.50;;;10.80;99.90;;;;;;5035313;28;20424;-56
2021/04/20 08:12:54;;;;;;;30.47;26.17;;;10.80;99.90;;;;;;5017160;28;20171;-59
2021/04/20 08:15:47;;;;;;;33.07;26.73;;;11.00;99.90;;;;;;5035007;28;20402;-58
2021/04/20 08:18:18;;;;;;;31.07;27.87;;;11.00;99.90;;;;;;5035504;28;20386;-56
2021/04/20 08:20:45;;;;;;;32.63;29.23;;;11.20;99.90;;;;;;5034826;28;20947;-59
2021/04/20 08:23:13;;;;;;;32.73;28.40;;;11.40;99.90;;;;;;5035363;28;20865;-58
2021/04/20 08:25:44;;;;;;;31.57;28.17;;;11.40;99.90;;;;;;5016799;28;20410;-59
2021/04/20 08:28:38;;;;;;;31.47;28.27;;;11.60;99.90;;;;;;5034786;28;20411;-58
2021/04/20 08:31:15;;;;;;;30.67;27.27;;;11.80;99.90;;;;;;5016952;28;20430;-58
2021/04/20 08:33:45;;;;;;;30.23;27.00;;;11.90;99.90;;;;;;5034798;28;20409;-59
2021/04/20 08:36:29;;;;;;;33.10;29.13;;;12.00;99.90;;;;;;5034509;28;20421;-57
2021/04/20 08:39:14;;;;;;;32.47;27.80;;;12.10;99.90;;;;;;5037203;28;20402;-58
2021/04/20 08:41:45;;;;;;;31.47;28.10;;;12.10;99.90;;;;;;5034578;28;20520;-59
2021/04/20 08:44:36;;;;;;;31.47;27.90;;;12.20;99.90;;;;;;5034788;28;20398;-57
2021/04/20 08:47:26;;;;;;;33.13;27.10;;;12.40;99.90;;;;;;5034559;28;20954;-59
2021/04/20 08:50:02;;;;;;;31.87;28.03;;;12.50;99.90;;;;;;5034037;28;20380;-57
2021/04/20 08:52:58;;;;;;;33.20;27.03;;;12.40;99.90;;;;;;5033455;28;20409;-59
2021/04/20 08:55:40;;;;;;;30.70;27.40;;;12.20;99.90;;;;;;5034339;28;20465;-58
2021/04/20 08:58:23;;;;;;;31.73;27.87;;;12.20;99.90;;;;;;5034440;28;20468;-59
2021/04/20 09:00:56;;;;;;;32.80;29.30;;;12.20;99.90;;;;;;5033748;28;20414;-56
2021/04/20 09:04:13;;;;;;;32.23;28.20;;;12.20;99.90;;;;;;5033569;28;20506;-56
2021/04/20 09:06:49;;;;;;;29.80;26.17;;;12.00;99.90;;;;;;5034208;28;20507;-58
2021/04/20 09:09:17;;;;;;;33.07;27.77;;;12.10;99.90;;;;;;5034365;28;20390;-58
2021/04/20 09:11:51;;;;;;;31.30;27.60;;;12.10;99.90;;;;;;5034037;28;20446;-58
2021/04/20 09:14:30;;;;;;;31.00;26.57;;;12.10;99.90;;;;;;5034282;28;20375;-55
2021/04/20 09:17:09;;;;;;;29.10;25.97;;;12.10;99.90;;;;;;5016361;28;20773;-58
2021/04/20 09:19:49;;;;;;;29.70;25.33;;;12.40;99.90;;;;;;5033657;28;20422;-59
2021/04/20 09:22:27;;;;;;;29.50;24.00;;;12.40;99.90;;;;;;5033733;28;20390;-58
2021/04/20 09:25:14;;;;;;;35.70;24.50;;;12.70;99.90;;;;;;5034184;28;20390;-59
2021/04/20 09:27:45;;;;;;;30.80;25.87;;;12.80;99.90;;;;;;5033856;28;20443;-58
2021/04/20 09:30:16;;;;;;;28.57;23.13;;;12.90;99.90;;;;;;5034018;28;20417;-59
2021/04/20 09:32:51;;;;;;;28.20;24.00;;;13.00;99.90;;;;;;5033594;28;20401;-59
2021/04/20 09:35:17;;;;;;;30.80;24.87;;;13.10;99.90;;;;;;5033747;28;20744;-57
2021/04/20 09:40:35;;;;;;;25.10;20.70;;;13.20;99.90;;;;;;5032540;28;20448;-58
2021/04/20 09:43:21;;;;;;;22.27;20.03;;;13.00;99.90;;;;;;5031849;28;20416;-59
2021/04/20 09:45:56;;;;;;;22.80;18.83;;;12.90;99.90;;;;;;5031422;28;20468;-58
2021/04/20 09:48:59;;;;;;;22.60;20.10;;;13.10;99.90;;;;;;5033377;28;20382;-58
2021/04/20 09:51:29;;;;;;;24.03;21.30;;;13.50;99.90;;;;;;5033277;28;20449;-58
2021/04/20 09:54:20;;;;;;;25.37;22.00;;;13.40;99.90;;;;;;5033287;28;20749;-58
2021/04/20 09:56:51;;;;;;;25.70;23.00;;;13.20;99.90;;;;;;5031846;28;20417;-60
2021/04/20 09:59:21;;;;;;;24.40;21.90;;;13.30;99.90;;;;;;5032750;28;20397;-59
2021/04/20 10:02:09;;;;;;;26.27;21.63;;;13.40;99.90;;;;;;5033612;28;20864;-59
2021/04/20 10:04:40;;;;;;;22.43;19.80;;;13.50;99.90;;;;;;5033335;28;20428;-58
2021/04/20 10:07:41;;;;;;;21.60;19.40;;;13.70;99.90;;;;;;5015552;28;20987;-58
2021/04/20 10:10:28;;;;;;;21.33;19.03;;;13.70;99.90;;;;;;5008902;28;20953;-59
2021/04/20 10:13:48;;;;;;;18.77;16.83;;;13.80;99.90;;;;;;5039645;28;20424;-58
2021/04/20 10:16:21;;;;;;;18.30;16.43;;;13.90;99.90;;;;;;4958776;29;20414;-57
2021/04/20 10:19:16;;;;;;;19.70;17.70;;;14.20;99.90;;;;;;5027543;28;20496;-56
2021/04/20 10:21:59;;;;;;;18.30;16.40;;;14.50;99.90;;;;;;5039891;28;20427;-57
2021/04/20 10:24:27;;;;;;;17.40;15.60;;;14.80;99.90;;;;;;5040304;28;20413;-57
2021/04/20 10:27:02;;;;;;;19.70;17.60;;;15.10;99.90;;;;;;5023619;28;20464;-56
2021/04/20 10:29:43;;;;;;;20.50;17.73;;;15.40;99.90;;;;;;5021219;28;20380;-55
2021/04/20 10:32:38;;;;;;;19.23;17.27;;;15.50;99.90;;;;;;5020948;28;20392;-55
2021/04/20 10:35:05;;;;;;;19.50;16.70;;;15.70;99.90;;;;;;5020347;28;20392;-54
2021/04/20 10:37:40;;;;;;;18.17;16.37;;;15.30;99.90;;;;;;5020508;28;20411;-55
2021/04/20 10:40:11;;;;;;;21.20;19.10;;;15.30;99.90;;;;;;5020225;28;20435;-57
2021/04/20 10:42:40;;;;;;;20.70;16.40;;;15.40;99.90;;;;;;5019604;28;20397;-58
2021/04/20 10:45:08;;;;;;;18.17;16.27;;;15.40;99.90;;;;;;5034303;28;20503;-57
2021/04/20 10:47:37;;;;;;;18.53;16.70;;;15.50;99.90;;;;;;5039924;28;20924;-59
2021/04/20 10:50:05;;;;;;;18.40;16.50;;;15.60;99.90;;;;;;5021907;28;20448;-56
2021/04/20 10:52:33;;;;;;;17.50;14.47;;;15.30;99.90;;;;;;5039616;28;20417;-58
2021/04/20 10:55:04;;;;;;;16.37;14.67;;;15.60;99.70;;;;;;5039426;28;20422;-57
2021/04/20 10:57:32;;;;;;;16.73;15.10;;;16.00;99.00;;;;;;5039097;28;20396;-58
2021/04/20 11:00:00;;;;;;;17.77;15.63;;;16.20;98.40;;;;;;5039461;28;20427;-54
2021/04/20 11:02:34;;;;;;;18.40;16.60;;;16.00;98.40;;;;;;5039516;28;20936;-56
2021/04/20 11:05:01;;;;;;;17.30;15.50;;;15.80;98.70;;;;;;5039638;28;20399;-59
2021/04/20 11:07:39;;;;;;;15.77;14.27;;;16.00;99.60;;;;;;5039418;28;20537;-59
2021/04/20 11:10:08;;;;;;;17.97;16.13;;;15.90;98.70;;;;;;5039778;28;20940;-55
2021/04/20 11:12:45;;;;;;;16.53;14.83;;;16.00;98.50;;;;;;5021132;28;20411;-58
2021/04/20 11:15:25;;;;;;;14.80;13.30;;;16.00;98.30;;;;;;5039637;28;20380;-58
2021/04/20 11:17:54;;;;;;;15.20;13.63;;;16.10;98.40;;;;;;5039929;28;20482;-59
2021/04/20 11:20:42;;;;;;;16.67;14.13;;;16.20;98.50;;;;;;5039007;28;20425;-58
2021/04/20 11:23:11;;;;;;;14.37;12.60;;;16.70;97.30;;;;;;5035835;28;20393;-59
2021/04/20 11:25:55;;;;;;;15.90;14.40;;;18.10;95.00;;;;;;5035924;28;20507;-59
2021/04/20 11:28:42;;;;;;;13.07;11.70;;;18.50;93.60;;;;;;5036437;28;20378;-59
2021/04/20 11:31:19;;;;;;;14.67;13.17;;;19.80;92.40;;;;;;5036017;28;20428;-58
2021/04/20 11:33:47;;;;;;;14.40;12.70;;;19.10;92.10;;;;;;5036395;28;20389;-59
2021/04/20 11:36:39;;;;;;;15.27;13.73;;;19.10;92.60;;;;;;5035801;28;20406;-59
2021/04/20 11:39:16;;;;;;;15.33;13.83;;;18.60;92.50;;;;;;5036776;28;20391;-59
2021/04/20 11:42:04;;;;;;;16.73;15.20;;;17.70;93.20;;;;;;5035541;28;20850;-57
2021/04/20 11:44:49;;;;;;;15.00;13.40;;;17.30;94.00;;;;;;5036309;28;20397;-58
2021/04/20 11:47:15;;;;;;;15.03;13.50;;;16.80;94.00;;;;;;5035701;28;20502;-57
2021/04/20 11:50:12;;;;;;;13.40;12.10;;;16.70;93.80;;;;;;5036277;28;20402;-59
2021/04/20 11:52:39;;;;;;;12.30;11.10;;;16.40;93.10;;;;;;5035805;28;20412;-59
2021/04/20 11:55:08;;;;;;;10.77;9.80;;;16.90;94.50;;;;;;5035708;28;20760;-56
2021/04/20 11:57:36;;;;;;;16.70;11.10;;;18.10;93.10;;;;;;5035364;28;20398;-59
2021/04/20 12:00:07;;;;;;;12.70;11.50;;;20.50;90.80;;;;;;5035599;28;20422;-57
2021/04/20 12:02:34;;;;;;;12.07;10.87;;;20.20;85.20;;;;;;5035414;28;20508;-58
2021/04/20 12:05:02;;;;;;;12.30;11.20;;;20.30;86.80;;;;;;5035539;28;20406;-58
2021/04/20 12:07:31;;;;;;;11.70;10.47;;;22.40;80.50;;;;;;5036056;28;20490;-59
2021/04/20 12:09:58;;;;;;;11.50;10.40;;;22.70;79.10;;;;;;5035962;28;20429;-58
2021/04/20 12:12:31;;;;;;;13.87;12.60;;;21.50;77.40;;;;;;5035475;28;20485;-59
2021/04/20 12:14:59;;;;;;;13.70;12.30;;;21.60;79.30;;;;;;5035579;28;20397;-57
2021/04/20 12:17:31;;;;;;;13.40;12.20;;;20.90;79.30;;;;;;5035324;28;20401;-56
2021/04/20 12:19:59;;;;;;;15.00;13.63;;;19.60;82.00;;;;;;5035326;28;20433;-56
2021/04/20 12:22:25;;;;;;;12.23;11.10;;;19.00;84.30;;;;;;5017768;28;20422;-56
2021/04/20 12:24:53;;;;;;;12.03;10.73;;;18.40;85.00;;;;;;5034932;28;20448;-58
2021/04/20 12:27:26;;;;;;;10.20;9.20;;;18.20;86.40;;;;;;5016547;28;20450;-59
2021/04/20 12:29:53;;;;;;;10.33;9.30;;;18.10;86.80;;;;;;5035303;28;20424;-58
2021/04/20 12:32:21;;;;;;;10.60;9.60;;;18.10;83.40;;;;;;5035212;28;20460;-58
2021/04/20 12:34:57;;;;;;;10.13;8.60;;;18.00;84.30;;;;;;5035224;28;20401;-53
2021/04/20 12:37:30;;;;;;;9.50;8.60;;;17.90;85.20;;;;;;5022513;28;20424;-59
2021/04/20 12:39:57;;;;;;;10.03;8.97;;;19.00;83.10;;;;;;5034727;28;20555;-57
2021/04/20 12:42:29;;;;;;;9.87;8.90;;;19.50;80.00;;;;;;5034286;28;20420;-59
2021/04/20 12:44:57;;;;;;;10.40;9.40;;;18.70;80.30;;;;;;5035042;28;20449;-58
2021/04/20 12:47:31;;;;;;;8.73;7.90;;;18.30;81.70;;;;;;5037087;28;20449;-58
2021/04/20 12:49:59;;;;;;;8.90;8.10;;;18.50;82.30;;;;;;5034380;28;20458;-56
2021/04/20 12:52:27;;;;;;;10.50;8.40;;;20.90;78.00;;;;;;5069601;22;20498;-59
2021/04/20 12:54:58;;;;;;;9.90;9.00;;;22.30;74.80;;;;;;5034148;28;20415;-58
2021/04/20 12:57:30;;;;;;;10.10;9.20;;;22.30;72.70;;;;;;5034204;28;20418;-59
2021/04/20 12:59:59;;;;;;;11.57;10.47;;;22.50;71.90;;;;;;5033772;28;20941;-57
2021/04/20 13:02:26;;;;;;;11.37;10.33;;;21.10;72.60;;;;;;5033959;28;20492;-60
2021/04/20 13:04:54;;;;;;;10.33;9.43;;;19.90;75.30;;;;;;5033967;28;20406;-58
2021/04/20 13:07:27;;;;;;;11.20;10.10;;;21.00;74.10;;;;;;5033567;28;20934;-59